Time;durP1;ratioP1;P1;durP2;ratioP2;P2;SDS_P1;SDS_P2;PMS_P1;PMS_P2;Temp;Humidity;BMP_temperature;BMP_pressure;BME280_temperature;BME280_humidity;BME280_pressure;Samples;Min_cycle;Max_cycle;Signal;HPM_P1;HPM_P2
2021/03/22 00:02:06;;;;;;;0.30;0.30;;;5.80;99.90;;;;;;5013068;28;20207;-84
2021/03/22 00:04:32;;;;;;;0.03;0.03;;;5.90;99.90;;;;;;5014251;28;20197;-85
2021/03/22 00:06:58;;;;;;;0.13;0.13;;;5.70;99.90;;;;;;5022873;28;20204;-85
2021/03/22 00:09:23;;;;;;;0.00;0.00;;;5.60;99.90;;;;;;5016273;28;20574;-84
2021/03/22 00:11:49;;;;;;;0.00;0.00;;;5.60;99.90;;;;;;5024701;28;20186;-84
2021/03/22 00:14:14;;;;;;;0.60;0.40;;;5.50;99.90;;;;;;5029072;28;20553;-84
2021/03/22 00:16:41;;;;;;;0.30;0.10;;;5.60;99.90;;;;;;5018115;28;20194;-85
2021/03/22 00:19:07;;;;;;;0.57;0.20;;;5.60;99.90;;;;;;5017340;28;20207;-83
2021/03/22 00:21:32;;;;;;;0.50;0.37;;;5.60;99.90;;;;;;5030095;28;20215;-84
2021/03/22 00:23:58;;;;;;;0.20;0.20;;;5.60;99.90;;;;;;5015392;28;20253;-85
2021/03/22 00:26:24;;;;;;;0.07;0.07;;;5.60;99.90;;;;;;5015427;28;20256;-84
2021/03/22 00:28:49;;;;;;;0.00;0.00;;;5.50;99.90;;;;;;5020150;28;20676;-84
2021/03/22 00:31:16;;;;;;;0.10;0.10;;;5.60;99.90;;;;;;5025189;28;20273;-84
2021/03/22 00:33:42;;;;;;;0.10;0.10;;;5.60;99.90;;;;;;5014227;28;20202;-83
2021/03/22 00:36:10;;;;;;;2.43;0.20;;;5.50;99.90;;;;;;5014531;28;20207;-84
2021/03/22 00:38:35;;;;;;;0.10;0.10;;;5.60;99.90;;;;;;5010859;28;20226;-84
2021/03/22 00:41:02;;;;;;;0.10;0.10;;;5.50;99.90;;;;;;5015700;28;20195;-85
2021/03/22 00:43:28;;;;;;;0.10;0.10;;;5.50;99.90;;;;;;5030913;28;20187;-83
2021/03/22 00:46:01;;;;;;;0.00;0.00;;;5.60;99.90;;;;;;5030079;28;20242;-84
2021/03/22 00:48:28;;;;;;;1.70;1.60;;;5.50;99.90;;;;;;5028874;28;20861;-84
2021/03/22 00:50:54;;;;;;;0.07;0.07;;;5.60;99.90;;;;;;5013340;28;20194;-83
2021/03/22 00:53:20;;;;;;;0.40;0.40;;;5.50;99.90;;;;;;5015694;28;20183;-84
2021/03/22 00:55:46;;;;;;;0.10;0.10;;;5.60;99.90;;;;;;5019746;28;20187;-84
2021/03/22 00:58:12;;;;;;;4.33;0.43;;;5.60;99.90;;;;;;5015959;28;20183;-83
2021/03/22 01:00:41;;;;;;;0.00;0.00;;;5.70;99.90;;;;;;5020661;28;20233;-85
2021/03/22 01:03:12;;;;;;;3.40;0.17;;;5.70;99.90;;;;;;5020495;28;20227;-85
2021/03/22 01:05:37;;;;;;;1.60;0.70;;;5.80;99.90;;;;;;5024354;28;20183;-83
2021/03/22 01:08:06;;;;;;;0.10;0.10;;;5.90;99.90;;;;;;5023251;28;20542;-85
2021/03/22 01:10:40;;;;;;;6.73;0.30;;;5.90;99.90;;;;;;5028808;28;20657;-85
2021/03/22 01:13:36;;;;;;;2.23;0.33;;;5.90;99.90;;;;;;5024226;28;20186;-84
2021/03/22 01:16:04;;;;;;;0.10;0.10;;;6.00;99.90;;;;;;5027847;28;20191;-84
2021/03/22 01:18:42;;;;;;;0.10;0.10;;;5.90;99.90;;;;;;5019772;28;20207;-84
2021/03/22 01:21:17;;;;;;;0.10;0.10;;;5.90;99.90;;;;;;5018048;28;20574;-84
2021/03/22 01:23:43;;;;;;;1.03;1.03;;;5.80;99.90;;;;;;5024739;28;20213;-84
2021/03/22 01:26:10;;;;;;;0.13;0.13;;;5.90;99.90;;;;;;5020459;28;20661;-83
2021/03/22 01:28:37;;;;;;;0.10;0.10;;;5.80;99.90;;;;;;5015468;28;20222;-84
2021/03/22 01:31:03;;;;;;;0.00;0.00;;;5.90;99.90;;;;;;5019361;28;20171;-85
2021/03/22 01:33:36;;;;;;;0.80;0.80;;;5.90;99.90;;;;;;5021214;28;20248;-84
2021/03/22 01:36:08;;;;;;;0.13;0.13;;;6.00;99.90;;;;;;5018543;28;20177;-84
2021/03/22 01:38:34;;;;;;;0.30;0.30;;;6.00;99.90;;;;;;5028905;28;20321;-84
2021/03/22 01:41:21;;;;;;;0.00;0.00;;;5.90;99.90;;;;;;5021657;28;20188;-85
2021/03/22 01:43:46;;;;;;;0.10;0.10;;;5.90;99.90;;;;;;5027651;28;20204;-84
2021/03/22 01:46:12;;;;;;;0.20;0.20;;;6.00;99.90;;;;;;5017947;28;20201;-83
2021/03/22 01:48:38;;;;;;;0.00;0.00;;;6.00;99.90;;;;;;5031430;28;20286;-84
2021/03/22 01:51:04;;;;;;;0.77;0.53;;;6.00;99.90;;;;;;5024560;28;20186;-85
2021/03/22 01:53:31;;;;;;;0.37;0.30;;;6.00;99.90;;;;;;5018797;28;20198;-83
2021/03/22 01:56:21;;;;;;;0.37;0.30;;;6.00;99.90;;;;;;5024502;28;20202;-84
2021/03/22 01:58:47;;;;;;;0.27;0.20;;;5.70;99.90;;;;;;5011287;28;20571;-84
2021/03/22 02:01:13;;;;;;;0.10;0.10;;;5.60;99.90;;;;;;5024693;28;20207;-82
2021/03/22 02:03:38;;;;;;;0.40;0.40;;;5.50;99.90;;;;;;5023144;28;20181;-84
2021/03/22 02:06:04;;;;;;;0.67;0.40;;;5.70;99.90;;;;;;5019552;28;20599;-83
2021/03/22 02:08:33;;;;;;;0.20;0.10;;;5.80;99.90;;;;;;5014921;28;20200;-85
2021/03/22 02:10:59;;;;;;;0.23;0.23;;;5.80;99.90;;;;;;5041255;28;20187;-84
2021/03/22 02:13:31;;;;;;;0.47;0.33;;;5.80;99.90;;;;;;5019736;28;20278;-84
2021/03/22 02:16:08;;;;;;;0.00;0.00;;;5.60;99.90;;;;;;5023338;28;20270;-84
2021/03/22 02:19:09;;;;;;;0.10;0.10;;;5.70;99.90;;;;;;5013649;28;20719;-85
2021/03/22 02:21:34;;;;;;;0.00;0.00;;;5.70;99.90;;;;;;5013219;28;20231;-84
2021/03/22 02:24:37;;;;;;;0.10;0.10;;;5.90;99.90;;;;;;5017226;28;20187;-85
2021/03/22 02:27:24;;;;;;;0.10;0.10;;;5.90;99.90;;;;;;5017915;28;20197;-83
2021/03/22 02:30:07;;;;;;;0.00;0.00;;;5.80;99.90;;;;;;5016754;28;20230;-85
2021/03/22 02:32:42;;;;;;;0.00;0.00;;;5.90;99.90;;;;;;5018693;28;20194;-84
2021/03/22 02:35:21;;;;;;;0.40;0.40;;;5.90;99.90;;;;;;5027006;28;20666;-83
2021/03/22 02:38:08;;;;;;;0.00;0.00;;;5.70;99.90;;;;;;5020631;28;20661;-85
2021/03/22 02:40:41;;;;;;;0.37;0.37;;;5.70;99.90;;;;;;5024096;28;20189;-84
2021/03/22 02:43:07;;;;;;;0.10;0.10;;;5.80;99.90;;;;;;5022939;28;20207;-84
2021/03/22 02:45:37;;;;;;;0.10;0.10;;;5.90;99.90;;;;;;5017588;28;20189;-83
2021/03/22 02:48:04;;;;;;;0.00;0.00;;;6.00;99.90;;;;;;5016166;28;20175;-85
2021/03/22 02:50:35;;;;;;;0.00;0.00;;;5.90;99.90;;;;;;5018080;28;20189;-84
2021/03/22 02:53:25;;;;;;;0.23;0.23;;;6.00;99.90;;;;;;5016828;28;20726;-85
2021/03/22 02:56:19;;;;;;;0.10;0.10;;;6.00;99.90;;;;;;5027472;28;20198;-83
2021/03/22 02:59:16;;;;;;;0.07;0.07;;;6.00;99.90;;;;;;5032135;28;20217;-84
2021/03/22 03:02:03;;;;;;;0.00;0.00;;;6.10;99.90;;;;;;5015158;28;20246;-85
2021/03/22 03:04:33;;;;;;;0.10;0.10;;;6.10;99.90;;;;;;5027954;28;20178;-83
2021/03/22 03:07:01;;;;;;;0.40;0.40;;;5.90;99.90;;;;;;5011520;28;20647;-84
2021/03/22 03:09:33;;;;;;;0.20;0.20;;;5.90;99.90;;;;;;5016517;28;20672;-84
2021/03/22 03:12:32;;;;;;;0.00;0.00;;;6.00;99.90;;;;;;5017636;28;20217;-85
2021/03/22 03:14:57;;;;;;;1.27;1.27;;;5.90;99.90;;;;;;4963744;28;20195;-83
2021/03/22 03:17:24;;;;;;;0.20;0.20;;;5.90;99.90;;;;;;5024200;28;20191;-84
2021/03/22 03:19:50;;;;;;;0.70;0.30;;;5.70;99.90;;;;;;5015529;28;20215;-83
2021/03/22 03:22:16;;;;;;;0.17;0.17;;;5.90;99.90;;;;;;5016241;28;20211;-83
2021/03/22 03:24:42;;;;;;;0.10;0.10;;;5.60;99.90;;;;;;5007804;28;20230;-83
2021/03/22 03:27:09;;;;;;;0.30;0.30;;;5.80;99.90;;;;;;5016889;28;20186;-84
2021/03/22 03:29:36;;;;;;;0.10;0.10;;;5.80;99.90;;;;;;5015000;28;20730;-84
2021/03/22 03:32:04;;;;;;;0.10;0.10;;;5.80;99.90;;;;;;5016937;28;20202;-84
2021/03/22 03:34:30;;;;;;;1.50;0.43;;;5.90;99.90;;;;;;5017388;28;20191;-84
2021/03/22 03:36:55;;;;;;;0.10;0.10;;;5.90;99.90;;;;;;5012608;28;20187;-85
2021/03/22 03:39:21;;;;;;;0.67;0.67;;;6.00;99.90;;;;;;5018755;28;20257;-85
2021/03/22 03:41:46;;;;;;;0.20;0.20;;;6.00;99.90;;;;;;5013615;28;20214;-84
2021/03/22 03:44:13;;;;;;;0.63;0.30;;;6.00;99.90;;;;;;5021086;28;20197;-84
2021/03/22 03:46:39;;;;;;;0.97;0.30;;;6.00;99.90;;;;;;5022376;28;20187;-85
2021/03/22 03:49:06;;;;;;;0.00;0.00;;;6.00;99.90;;;;;;5025037;28;20214;-85
2021/03/22 03:51:32;;;;;;;0.00;0.00;;;6.10;99.90;;;;;;5026792;28;20191;-84
2021/03/22 03:53:59;;;;;;;0.10;0.10;;;6.00;99.90;;;;;;5023088;28;20659;-85
2021/03/22 03:56:26;;;;;;;0.47;0.23;;;5.90;99.90;;;;;;5015480;28;20190;-85
2021/03/22 03:58:55;;;;;;;0.10;0.10;;;5.80;99.90;;;;;;5024429;28;20261;-84
2021/03/22 04:01:21;;;;;;;0.43;0.43;;;5.90;99.90;;;;;;5027795;28;20403;-83
2021/03/22 04:03:46;;;;;;;0.00;0.00;;;6.00;99.90;;;;;;5020886;28;20216;-85
2021/03/22 04:06:24;;;;;;;0.00;0.00;;;6.00;99.90;;;;;;5029724;28;20845;-84
2021/03/22 04:08:53;;;;;;;0.00;0.00;;;6.00;99.90;;;;;;5017150;28;20202;-84
2021/03/22 04:11:22;;;;;;;0.27;0.27;;;5.90;99.90;;;;;;5015793;28;20675;-83
2021/03/22 04:13:48;;;;;;;0.20;0.20;;;5.80;99.90;;;;;;5007208;28;20638;-85
2021/03/22 04:16:15;;;;;;;0.00;0.00;;;5.90;99.90;;;;;;5020912;28;20187;-85
2021/03/22 04:18:41;;;;;;;0.10;0.10;;;5.90;99.90;;;;;;5017344;28;20206;-84
2021/03/22 04:21:15;;;;;;;0.00;0.00;;;5.90;99.90;;;;;;5018570;28;20186;-84
2021/03/22 04:23:43;;;;;;;0.00;0.00;;;5.90;99.90;;;;;;5036123;28;20690;-85
2021/03/22 04:26:09;;;;;;;1.73;0.40;;;5.90;99.90;;;;;;5021296;28;20182;-83
2021/03/22 04:28:36;;;;;;;0.30;0.30;;;5.90;99.90;;;;;;5014528;28;20209;-84
2021/03/22 04:31:02;;;;;;;2.17;0.13;;;5.90;99.90;;;;;;5016829;28;20562;-84
2021/03/22 04:33:27;;;;;;;0.00;0.00;;;6.00;99.90;;;;;;5022588;28;20252;-83
2021/03/22 04:35:53;;;;;;;0.00;0.00;;;6.00;99.90;;;;;;5022446;28;20201;-85
2021/03/22 04:38:19;;;;;;;0.20;0.20;;;5.80;99.90;;;;;;5029785;28;20206;-83
2021/03/22 04:40:45;;;;;;;0.10;0.10;;;5.80;99.90;;;;;;5021086;28;20207;-84
2021/03/22 04:43:12;;;;;;;0.10;0.10;;;5.80;99.90;;;;;;5028429;28;20226;-83
2021/03/22 04:45:38;;;;;;;0.30;0.30;;;5.90;99.90;;;;;;5024369;28;20218;-84
2021/03/22 04:48:04;;;;;;;0.27;0.27;;;5.90;99.90;;;;;;5021308;28;20237;-86
2021/03/22 04:50:29;;;;;;;0.10;0.10;;;5.80;99.90;;;;;;5020720;28;20206;-85
2021/03/22 04:52:56;;;;;;;0.20;0.20;;;5.80;99.90;;;;;;5029239;28;20716;-83
2021/03/22 04:55:24;;;;;;;0.50;0.30;;;5.80;99.90;;;;;;5033098;28;20245;-84
2021/03/22 04:57:50;;;;;;;0.83;0.30;;;5.70;99.90;;;;;;5031533;28;20215;-85
2021/03/22 05:00:25;;;;;;;0.00;0.00;;;5.60;99.90;;;;;;5023991;28;20594;-85
2021/03/22 05:02:51;;;;;;;0.30;0.20;;;5.70;99.90;;;;;;5032405;28;20209;-83
2021/03/22 05:05:17;;;;;;;0.00;0.00;;;5.70;99.90;;;;;;5027093;28;20246;-83
2021/03/22 05:07:44;;;;;;;0.20;0.20;;;5.70;99.90;;;;;;5016363;28;20655;-82
2021/03/22 05:10:18;;;;;;;0.10;0.10;;;5.70;99.90;;;;;;5023241;28;20199;-83
2021/03/22 05:12:43;;;;;;;0.47;0.20;;;5.80;99.90;;;;;;5017413;28;20195;-83
2021/03/22 05:15:09;;;;;;;0.00;0.00;;;5.70;99.90;;;;;;5013040;28;20183;-84
2021/03/22 05:17:34;;;;;;;0.00;0.00;;;5.80;99.90;;;;;;5003034;28;20202;-83
2021/03/22 05:20:00;;;;;;;3.50;0.57;;;5.70;99.90;;;;;;5029511;28;20210;-82
2021/03/22 05:22:26;;;;;;;0.10;0.10;;;5.60;99.90;;;;;;5022004;28;20695;-84
2021/03/22 05:24:51;;;;;;;0.10;0.10;;;5.50;99.90;;;;;;5015488;28;20226;-82
2021/03/22 05:27:17;;;;;;;0.27;0.27;;;5.60;99.90;;;;;;5015308;28;20179;-83
2021/03/22 05:29:42;;;;;;;0.73;0.30;;;5.60;99.90;;;;;;5023312;28;20218;-83
2021/03/22 05:32:32;;;;;;;0.00;0.00;;;5.80;99.90;;;;;;5031410;28;20205;-83
2021/03/22 05:34:58;;;;;;;0.23;0.23;;;5.80;99.90;;;;;;5015418;28;20183;-83
2021/03/22 05:37:24;;;;;;;0.20;0.20;;;5.80;99.90;;;;;;5024240;28;20188;-82
2021/03/22 05:39:50;;;;;;;0.10;0.10;;;5.80;99.90;;;;;;5020075;28;20272;-83
2021/03/22 05:42:29;;;;;;;0.10;0.10;;;5.70;99.90;;;;;;5024377;28;20712;-84
2021/03/22 05:45:01;;;;;;;0.10;0.10;;;5.60;99.90;;;;;;5015511;28;20276;-85
2021/03/22 05:47:39;;;;;;;0.10;0.10;;;5.60;99.90;;;;;;5021512;28;20279;-83
2021/03/22 05:50:25;;;;;;;0.13;0.07;;;5.70;99.90;;;;;;5021697;28;20305;-84
2021/03/22 05:53:10;;;;;;;0.07;0.07;;;5.70;99.90;;;;;;5032215;28;20226;-83
2021/03/22 05:55:54;;;;;;;0.00;0.00;;;5.60;99.90;;;;;;5024804;28;20194;-85
2021/03/22 05:58:32;;;;;;;0.10;0.10;;;5.70;99.90;;;;;;5015788;28;20251;-86
2021/03/22 06:01:27;;;;;;;0.10;0.10;;;5.70;99.90;;;;;;5004440;28;20186;-83
2021/03/22 06:04:11;;;;;;;0.83;0.50;;;5.60;99.90;;;;;;5002933;28;20183;-85
2021/03/22 06:06:42;;;;;;;0.87;0.77;;;5.60;99.90;;;;;;5013562;28;20300;-84
2021/03/22 06:09:30;;;;;;;0.03;0.03;;;5.60;99.90;;;;;;5024489;28;20215;-84
2021/03/22 06:12:29;;;;;;;0.10;0.10;;;5.70;99.90;;;;;;5023200;28;20558;-82
2021/03/22 06:15:17;;;;;;;13.13;0.30;;;5.60;99.90;;;;;;5032874;28;20205;-83
2021/03/22 06:17:56;;;;;;;0.57;0.10;;;5.50;99.90;;;;;;5019428;28;20187;-86
2021/03/22 06:20:27;;;;;;;2.20;0.40;;;5.60;99.90;;;;;;5018645;28;20284;-86
2021/03/22 06:23:04;;;;;;;0.97;0.47;;;5.70;99.90;;;;;;5010753;28;21192;-85
2021/03/22 06:25:33;;;;;;;0.10;0.10;;;5.40;99.90;;;;;;5016557;28;20186;-85
2021/03/22 06:28:15;;;;;;;0.20;0.20;;;5.30;99.90;;;;;;5027245;28;20510;-83
2021/03/22 06:30:51;;;;;;;0.20;0.20;;;5.50;99.90;;;;;;5020614;28;20624;-84
2021/03/22 06:33:28;;;;;;;0.30;0.30;;;5.60;99.90;;;;;;5013887;28;20195;-83
2021/03/22 06:35:54;;;;;;;2.73;0.60;;;5.70;99.90;;;;;;5013603;28;20194;-82
2021/03/22 06:38:19;;;;;;;0.10;0.10;;;5.60;99.90;;;;;;5015440;28;20194;-84
2021/03/22 06:40:45;;;;;;;0.87;0.30;;;5.70;99.90;;;;;;5011083;28;20206;-84
2021/03/22 06:43:18;;;;;;;0.37;0.20;;;5.90;99.90;;;;;;5015155;28;20621;-84
2021/03/22 06:45:53;;;;;;;0.20;0.20;;;5.80;99.90;;;;;;5024968;28;20183;-83
2021/03/22 06:48:23;;;;;;;0.10;0.10;;;5.70;99.90;;;;;;5018138;28;20187;-84
2021/03/22 06:50:52;;;;;;;0.30;0.30;;;5.90;99.90;;;;;;5013776;28;20199;-85
2021/03/22 06:53:55;;;;;;;0.20;0.20;;;5.90;99.90;;;;;;5018042;28;20202;-85
2021/03/22 06:56:42;;;;;;;2.77;0.77;;;5.80;99.90;;;;;;4996348;28;20248;-85
2021/03/22 06:59:21;;;;;;;0.10;0.10;;;5.80;99.90;;;;;;5014436;28;20194;-84
2021/03/22 07:01:50;;;;;;;0.20;0.20;;;5.90;99.90;;;;;;5016856;28;20678;-84
2021/03/22 07:04:24;;;;;;;0.00;0.00;;;6.00;99.90;;;;;;5021222;28;20177;-84
2021/03/22 07:07:09;;;;;;;0.20;0.20;;;6.10;99.90;;;;;;5023909;28;20544;-84
2021/03/22 07:09:40;;;;;;;0.10;0.10;;;6.10;99.90;;;;;;5015345;28;20282;-83
2021/03/22 07:12:09;;;;;;;0.10;0.10;;;6.20;99.90;;;;;;5022041;28;20686;-83
2021/03/22 07:14:35;;;;;;;0.10;0.10;;;6.20;99.90;;;;;;5030245;28;20285;-84
2021/03/22 07:17:14;;;;;;;0.00;0.00;;;6.20;99.90;;;;;;5018738;28;20206;-84
2021/03/22 07:20:11;;;;;;;0.33;0.30;;;6.20;99.90;;;;;;5070532;27;20844;-82
2021/03/22 07:22:37;;;;;;;0.10;0.10;;;6.10;99.90;;;;;;5062199;28;20656;-84
2021/03/22 07:25:24;;;;;;;0.10;0.10;;;6.20;99.90;;;;;;5066551;28;20232;-83
2021/03/22 07:27:51;;;;;;;0.23;0.23;;;6.40;99.90;;;;;;5066977;28;20185;-82
2021/03/22 07:30:42;;;;;;;0.00;0.00;;;6.50;99.90;;;;;;5069390;28;20231;-82
2021/03/22 07:33:22;;;;;;;0.17;0.17;;;6.60;99.90;;;;;;5057420;28;20192;-81
2021/03/22 07:36:25;;;;;;;0.10;0.10;;;6.80;99.90;;;;;;5070669;28;20193;-82
2021/03/22 07:39:09;;;;;;;0.10;0.10;;;6.60;99.90;;;;;;5064231;28;20573;-81
2021/03/22 07:42:09;;;;;;;0.07;0.07;;;6.50;99.90;;;;;;5065714;28;20179;-85
2021/03/22 07:45:05;;;;;;;0.00;0.00;;;6.80;99.90;;;;;;5080443;28;20353;-82
2021/03/22 07:47:59;;;;;;;0.00;0.00;;;6.80;99.90;;;;;;5060764;28;20544;-82
2021/03/22 07:50:47;;;;;;;0.10;0.10;;;7.00;99.90;;;;;;5066732;28;20209;-82
2021/03/22 07:53:40;;;;;;;0.10;0.10;;;6.50;99.90;;;;;;5063496;28;20181;-82
2021/03/22 07:56:27;;;;;;;0.10;0.10;;;6.60;99.90;;;;;;5067390;28;20575;-83
2021/03/22 07:59:05;;;;;;;0.00;0.00;;;6.50;99.90;;;;;;5066564;28;20213;-82
2021/03/22 08:01:56;;;;;;;0.10;0.10;;;6.80;99.90;;;;;;5066099;28;20685;-83
2021/03/22 08:04:41;;;;;;;0.30;0.30;;;6.70;99.90;;;;;;5069996;28;20185;-81
2021/03/22 08:07:09;;;;;;;0.33;0.30;;;7.10;99.90;;;;;;5070547;28;20216;-82
2021/03/22 08:09:51;;;;;;;0.23;0.23;;;6.90;99.90;;;;;;5062239;28;21380;-82
2021/03/22 08:12:26;;;;;;;0.00;0.00;;;7.00;99.90;;;;;;5061733;28;20243;-82
2021/03/22 08:15:13;;;;;;;0.30;0.10;;;7.30;99.90;;;;;;5057271;28;20177;-82
2021/03/22 08:17:53;;;;;;;0.60;0.60;;;7.00;99.90;;;;;;5062557;28;20699;-84
2021/03/22 08:20:35;;;;;;;0.60;0.43;;;7.10;99.90;;;;;;5059301;28;20206;-81
2021/03/22 08:23:57;;;;;;;0.10;0.10;;;7.40;99.90;;;;;;5078329;28;20618;-81
2021/03/22 08:26:32;;;;;;;0.40;0.40;;;7.40;99.90;;;;;;5052191;28;20177;-80
2021/03/22 08:29:03;;;;;;;0.10;0.10;;;7.20;99.90;;;;;;5065345;28;20242;-81
2021/03/22 08:32:04;;;;;;;2.40;1.03;;;7.00;99.90;;;;;;5059737;28;20788;-81
2021/03/22 08:34:48;;;;;;;0.10;0.10;;;7.50;99.90;;;;;;5037862;28;20198;-83
2021/03/22 08:37:20;;;;;;;0.10;0.10;;;7.50;99.90;;;;;;5047076;28;20224;-82
2021/03/22 08:39:54;;;;;;;0.00;0.00;;;7.70;99.90;;;;;;5036491;28;20582;-83
2021/03/22 08:42:29;;;;;;;0.07;0.07;;;7.70;99.90;;;;;;5050685;28;20306;-81
2021/03/22 08:45:20;;;;;;;0.10;0.10;;;7.40;99.90;;;;;;5038254;28;20182;-81
2021/03/22 08:48:03;;;;;;;0.30;0.30;;;7.70;99.90;;;;;;5037084;28;20189;-81
2021/03/22 08:50:33;;;;;;;0.30;0.30;;;7.70;99.90;;;;;;5036938;28;20214;-81
2021/03/22 08:53:01;;;;;;;0.10;0.10;;;7.60;99.90;;;;;;5038379;28;20194;-80
2021/03/22 08:55:43;;;;;;;0.10;0.10;;;7.80;99.90;;;;;;5043698;28;20658;-81
2021/03/22 08:58:45;;;;;;;0.10;0.10;;;7.60;99.90;;;;;;5041228;28;20800;-81
2021/03/22 09:01:28;;;;;;;0.10;0.10;;;7.40;99.90;;;;;;5038961;28;20268;-82
2021/03/22 09:03:56;;;;;;;0.10;0.10;;;7.50;99.90;;;;;;5047458;28;20201;-81
2021/03/22 09:06:27;;;;;;;0.20;0.20;;;7.50;99.90;;;;;;5051799;28;20186;-81
2021/03/22 09:08:54;;;;;;;0.07;0.07;;;7.80;99.90;;;;;;5054174;28;20272;-81
2021/03/22 09:11:32;;;;;;;0.77;0.10;;;8.20;99.90;;;;;;5047345;28;20190;-81
2021/03/22 09:14:27;;;;;;;0.30;0.30;;;8.20;99.90;;;;;;5041089;28;20183;-81
2021/03/22 09:16:54;;;;;;;0.43;0.40;;;7.80;99.90;;;;;;5038573;28;20294;-80
2021/03/22 09:19:19;;;;;;;0.10;0.10;;;7.80;99.90;;;;;;5045737;28;20221;-81
2021/03/22 09:21:48;;;;;;;0.57;0.10;;;7.70;99.90;;;;;;5039302;28;20209;-81
2021/03/22 09:24:42;;;;;;;0.10;0.10;;;7.50;99.90;;;;;;5042383;28;20185;-82
2021/03/22 09:27:18;;;;;;;0.00;0.00;;;7.40;99.90;;;;;;5042233;28;20189;-84
2021/03/22 09:30:02;;;;;;;0.20;0.20;;;7.60;99.90;;;;;;5045756;28;20202;-81
2021/03/22 09:32:34;;;;;;;0.10;0.10;;;7.70;99.90;;;;;;5051888;28;20181;-82
2021/03/22 09:35:16;;;;;;;0.00;0.00;;;7.80;99.90;;;;;;5036515;28;20192;-81
2021/03/22 09:37:51;;;;;;;0.00;0.00;;;7.80;99.90;;;;;;5051932;28;20200;-81
2021/03/22 09:40:23;;;;;;;0.10;0.10;;;7.70;99.90;;;;;;5044002;28;20244;-81
2021/03/22 09:43:04;;;;;;;0.30;0.30;;;7.30;99.90;;;;;;5043433;28;20204;-81
2021/03/22 09:45:31;;;;;;;0.20;0.20;;;7.10;99.90;;;;;;5054057;28;20242;-83
2021/03/22 09:48:16;;;;;;;0.10;0.10;;;7.10;99.90;;;;;;5050801;28;20258;-83
2021/03/22 09:50:43;;;;;;;0.10;0.10;;;7.40;99.90;;;;;;5054285;28;20194;-82
2021/03/22 09:53:20;;;;;;;1.07;0.97;;;7.20;99.90;;;;;;5045109;28;20189;-81
2021/03/22 09:55:49;;;;;;;0.17;0.17;;;7.10;99.90;;;;;;5048055;28;20192;-81
2021/03/22 09:58:25;;;;;;;0.10;0.10;;;7.20;99.90;;;;;;5045719;28;20220;-82
2021/03/22 10:01:03;;;;;;;0.00;0.00;;;7.50;99.90;;;;;;5044385;28;20174;-82
2021/03/22 10:03:45;;;;;;;0.07;0.07;;;7.50;99.90;;;;;;5057288;28;20178;-82
2021/03/22 10:06:39;;;;;;;0.10;0.10;;;7.40;99.90;;;;;;5042495;28;20603;-82
2021/03/22 10:09:10;;;;;;;0.73;0.10;;;7.90;99.90;;;;;;5035953;28;20230;-80
2021/03/22 10:11:41;;;;;;;0.00;0.00;;;8.00;99.90;;;;;;5051006;28;20195;-82
2021/03/22 10:14:14;;;;;;;0.20;0.20;;;8.30;99.90;;;;;;5057804;28;20185;-82
2021/03/22 10:16:40;;;;;;;0.00;0.00;;;8.00;99.90;;;;;;5037527;28;20187;-81
2021/03/22 10:19:20;;;;;;;0.20;0.20;;;8.10;99.90;;;;;;5048794;28;20217;-82
2021/03/22 10:21:57;;;;;;;0.00;0.00;;;7.70;99.90;;;;;;5046959;28;20559;-81
2021/03/22 10:24:53;;;;;;;1.23;0.20;;;7.80;99.90;;;;;;5047603;28;21203;-82
2021/03/22 10:27:32;;;;;;;0.30;0.30;;;7.90;99.90;;;;;;5042494;28;20262;-82
2021/03/22 10:30:24;;;;;;;0.20;0.20;;;7.80;99.90;;;;;;5050701;28;20677;-82
2021/03/22 10:32:59;;;;;;;2.60;1.13;;;7.50;99.90;;;;;;5041575;28;20192;-81
2021/03/22 10:35:53;;;;;;;1.13;0.67;;;7.60;99.90;;;;;;5048940;28;20301;-81
2021/03/22 10:38:29;;;;;;;0.40;0.40;;;7.70;99.90;;;;;;5047888;28;20241;-81
2021/03/22 10:40:56;;;;;;;0.20;0.20;;;7.60;99.90;;;;;;5040010;28;20181;-80
2021/03/22 10:43:24;;;;;;;0.20;0.20;;;7.70;99.90;;;;;;5041536;28;20522;-81
2021/03/22 10:45:50;;;;;;;0.20;0.20;;;7.80;99.90;;;;;;5045134;28;20360;-83
2021/03/22 10:48:27;;;;;;;0.13;0.13;;;7.90;99.90;;;;;;5048839;28;20184;-81
2021/03/22 10:51:06;;;;;;;2.30;0.40;;;8.00;99.90;;;;;;5045581;28;20182;-81
2021/03/22 10:53:33;;;;;;;0.30;0.30;;;8.00;99.90;;;;;;5045123;28;20264;-81
2021/03/22 10:56:17;;;;;;;0.10;0.10;;;8.20;99.90;;;;;;5041280;28;20190;-80
2021/03/22 10:58:43;;;;;;;3.73;0.30;;;8.10;99.90;;;;;;5044870;28;20216;-82
2021/03/22 11:01:09;;;;;;;0.30;0.27;;;7.80;99.90;;;;;;5047535;28;20797;-82
2021/03/22 11:03:36;;;;;;;0.00;0.00;;;7.80;99.90;;;;;;5041284;28;20207;-82
2021/03/22 11:06:10;;;;;;;0.10;0.10;;;8.20;99.90;;;;;;5045815;28;20661;-83
2021/03/22 11:08:39;;;;;;;3.90;1.90;;;8.10;99.90;;;;;;5044630;28;20215;-82
2021/03/22 11:11:15;;;;;;;1.10;1.10;;;8.30;99.90;;;;;;5048288;28;20185;-84
2021/03/22 11:13:44;;;;;;;0.27;0.20;;;8.30;99.90;;;;;;5051296;28;20200;-83
2021/03/22 11:16:35;;;;;;;0.10;0.10;;;8.60;99.90;;;;;;5037055;28;20211;-82
2021/03/22 11:19:24;;;;;;;0.20;0.20;;;8.50;99.90;;;;;;5047309;28;20798;-82
2021/03/22 11:21:52;;;;;;;0.20;0.20;;;8.60;99.90;;;;;;5038873;28;20737;-82
2021/03/22 11:24:32;;;;;;;0.10;0.10;;;8.50;99.90;;;;;;5044215;28;20182;-83
2021/03/22 11:27:00;;;;;;;1.03;1.03;;;8.60;99.90;;;;;;5047594;28;20259;-81
2021/03/22 11:29:27;;;;;;;0.10;0.10;;;8.70;99.90;;;;;;5040868;28;20216;-83
2021/03/22 11:32:03;;;;;;;0.20;0.20;;;8.70;99.90;;;;;;5044591;28;20189;-82
2021/03/22 11:34:33;;;;;;;0.20;0.20;;;8.80;99.90;;;;;;5043112;28;20615;-82
2021/03/22 11:37:15;;;;;;;0.20;0.20;;;8.70;99.90;;;;;;5046741;28;20191;-82
2021/03/22 11:39:42;;;;;;;0.10;0.10;;;8.60;99.90;;;;;;5060421;28;20225;-81
2021/03/22 11:42:24;;;;;;;0.00;0.00;;;8.60;99.90;;;;;;5045456;28;20184;-84
2021/03/22 11:44:51;;;;;;;0.10;0.10;;;8.80;99.90;;;;;;5047092;28;21972;-82
2021/03/22 11:47:39;;;;;;;0.67;0.10;;;9.30;99.90;;;;;;5046429;28;20180;-84
2021/03/22 11:50:24;;;;;;;0.20;0.20;;;8.90;99.90;;;;;;5052344;28;20558;-82
2021/03/22 11:53:12;;;;;;;0.00;0.00;;;9.00;99.90;;;;;;5043184;28;20184;-82
2021/03/22 11:55:47;;;;;;;0.10;0.10;;;9.10;99.90;;;;;;5043129;28;20207;-82
2021/03/22 11:58:37;;;;;;;0.00;0.00;;;9.10;99.90;;;;;;5042893;28;20213;-81
2021/03/22 12:01:27;;;;;;;0.10;0.10;;;9.20;99.90;;;;;;5042326;28;20189;-82
2021/03/22 12:04:13;;;;;;;0.10;0.10;;;8.80;99.90;;;;;;5045528;28;20181;-84
2021/03/22 12:06:54;;;;;;;0.10;0.10;;;9.10;99.90;;;;;;5053708;28;20713;-83
2021/03/22 12:09:20;;;;;;;0.10;0.10;;;9.10;99.90;;;;;;5049308;28;20204;-82
2021/03/22 12:11:46;;;;;;;0.20;0.20;;;8.90;99.90;;;;;;5044919;28;20285;-82
2021/03/22 12:14:11;;;;;;;0.10;0.10;;;9.10;99.90;;;;;;5045911;28;20788;-83
2021/03/22 12:16:38;;;;;;;0.10;0.10;;;8.90;99.90;;;;;;5054399;28;20218;-82
2021/03/22 12:19:07;;;;;;;0.10;0.10;;;9.10;99.90;;;;;;5037583;28;20243;-83
2021/03/22 12:21:34;;;;;;;0.10;0.10;;;8.90;99.90;;;;;;5042536;28;20192;-82
2021/03/22 12:24:00;;;;;;;0.07;0.07;;;9.20;99.90;;;;;;5050108;28;20192;-82
2021/03/22 12:26:29;;;;;;;0.10;0.10;;;8.90;99.90;;;;;;5039362;28;20315;-84
2021/03/22 12:28:55;;;;;;;1.43;0.20;;;9.10;99.90;;;;;;5051272;28;20214;-83
2021/03/22 12:31:24;;;;;;;0.10;0.10;;;9.50;99.90;;;;;;5045110;28;20238;-83
2021/03/22 12:33:50;;;;;;;0.23;0.10;;;9.20;99.90;;;;;;5055437;28;20813;-83
2021/03/22 12:36:16;;;;;;;0.40;0.20;;;9.70;99.90;;;;;;5057498;28;20266;-81
2021/03/22 12:38:42;;;;;;;0.20;0.20;;;9.60;99.90;;;;;;5049713;28;20240;-83
2021/03/22 12:41:08;;;;;;;0.20;0.20;;;9.90;99.90;;;;;;5039555;28;20188;-83
2021/03/22 12:43:35;;;;;;;0.10;0.10;;;10.20;99.90;;;;;;5052905;28;20188;-82
2021/03/22 12:46:02;;;;;;;0.47;0.10;;;10.50;99.90;;;;;;5057916;28;20192;-84
2021/03/22 12:48:29;;;;;;;0.10;0.10;;;10.20;99.90;;;;;;5053090;28;20303;-83
2021/03/22 12:50:55;;;;;;;0.00;0.00;;;10.40;99.90;;;;;;5057438;28;20193;-83
2021/03/22 12:53:20;;;;;;;0.10;0.10;;;10.30;99.90;;;;;;5055069;28;20981;-83
2021/03/22 12:55:46;;;;;;;0.30;0.30;;;10.00;99.90;;;;;;5038330;28;20189;-83
2021/03/22 12:58:18;;;;;;;0.10;0.10;;;9.80;99.90;;;;;;5037822;28;20205;-82
2021/03/22 13:00:45;;;;;;;0.20;0.20;;;9.70;99.90;;;;;;5046507;28;20183;-82
2021/03/22 13:03:19;;;;;;;0.10;0.10;;;9.30;99.90;;;;;;5047856;28;20169;-82
2021/03/22 13:05:45;;;;;;;0.53;0.27;;;9.30;99.90;;;;;;5056369;28;20189;-82
2021/03/22 13:08:10;;;;;;;0.10;0.10;;;9.10;99.90;;;;;;5046724;28;20266;-83
2021/03/22 13:10:36;;;;;;;0.10;0.10;;;8.60;99.90;;;;;;5051648;28;20703;-82
2021/03/22 13:13:05;;;;;;;0.00;0.00;;;8.50;99.90;;;;;;5054224;28;20184;-83
2021/03/22 13:15:40;;;;;;;2.10;0.37;;;8.40;99.90;;;;;;5058572;28;20243;-83
2021/03/22 13:18:12;;;;;;;0.10;0.10;;;8.50;99.90;;;;;;5044540;28;20215;-83
2021/03/22 13:20:37;;;;;;;0.33;0.33;;;8.60;99.90;;;;;;5044963;28;20187;-83
2021/03/22 13:23:03;;;;;;;0.10;0.10;;;8.80;99.90;;;;;;5049244;28;20238;-84
2021/03/22 13:25:29;;;;;;;0.10;0.10;;;9.00;99.90;;;;;;5042934;28;20299;-83
2021/03/22 13:27:55;;;;;;;0.23;0.17;;;8.90;99.90;;;;;;5036128;28;20189;-83
2021/03/22 13:30:24;;;;;;;0.40;0.13;;;8.90;99.90;;;;;;5051560;28;20210;-83
2021/03/22 13:32:51;;;;;;;1.60;0.20;;;8.80;99.90;;;;;;5038874;28;20223;-82